Time;durP1;ratioP1;P1;durP2;ratioP2;P2;SDS_P1;SDS_P2;PMS_P1;PMS_P2;Temp;Humidity;BMP_temperature;BMP_pressure;BME280_temperature;BME280_humidity;BME280_pressure;Samples;Min_cycle;Max_cycle;Signal;HPM_P1;HPM_P2
2021/12/03 00:00:00;;;;;;;16.73;10.00;;;-0.10;99.90;;;;;;5027591;28;20377;-79
2021/12/03 00:02:26;;;;;;;16.17;10.57;;;-0.10;99.90;;;;;;5027747;28;20427;-78
2021/12/03 00:04:52;;;;;;;13.60;9.77;;;-0.10;99.90;;;;;;5027600;28;20033;-79
2021/12/03 00:07:17;;;;;;;17.23;10.97;;;-0.10;99.90;;;;;;5027731;28;20025;-79
2021/12/03 00:09:43;;;;;;;16.43;10.80;;;-0.10;99.90;;;;;;5026769;28;20050;-79
2021/12/03 00:12:09;;;;;;;16.40;10.70;;;-0.10;99.90;;;;;;5027524;28;20040;-79
2021/12/03 00:14:35;;;;;;;17.17;11.80;;;-0.20;99.90;;;;;;5027418;28;20470;-79
2021/12/03 00:17:02;;;;;;;18.37;11.23;;;-0.20;99.90;;;;;;5027339;28;20112;-79
2021/12/03 00:19:28;;;;;;;16.73;10.57;;;-0.20;99.90;;;;;;5027320;28;20432;-79
2021/12/03 00:21:54;;;;;;;15.83;10.80;;;-0.30;99.90;;;;;;5027459;28;20034;-79
2021/12/03 00:24:19;;;;;;;16.67;10.87;;;-0.30;99.90;;;;;;5027276;28;20056;-79
2021/12/03 00:26:45;;;;;;;14.93;10.80;;;-0.30;99.90;;;;;;5010045;28;20132;-79
2021/12/03 00:29:11;;;;;;;16.00;10.70;;;-0.30;99.90;;;;;;5027166;28;20117;-79
2021/12/03 00:31:37;;;;;;;20.07;12.40;;;-0.30;99.90;;;;;;5009897;28;20030;-80
2021/12/03 00:34:03;;;;;;;18.13;11.57;;;-0.20;99.90;;;;;;5027143;28;20081;-80
2021/12/03 00:36:29;;;;;;;19.47;11.63;;;-0.20;99.90;;;;;;5027167;28;20070;-80
2021/12/03 00:38:58;;;;;;;19.33;12.67;;;-0.20;99.90;;;;;;5027101;28;20492;-80
2021/12/03 00:41:25;;;;;;;17.60;11.87;;;-0.10;99.90;;;;;;5027248;28;20381;-80
2021/12/03 00:43:52;;;;;;;18.93;11.97;;;-0.10;99.90;;;;;;5027107;28;20478;-80
2021/12/03 00:46:20;;;;;;;17.80;11.20;;;-0.10;99.90;;;;;;5027349;28;20036;-80
2021/12/03 00:48:48;;;;;;;19.77;12.17;;;-0.10;99.90;;;;;;5026731;28;20382;-80
2021/12/03 00:51:15;;;;;;;19.87;12.97;;;0.00;99.90;;;;;;5026966;28;20036;-80
2021/12/03 00:53:41;;;;;;;19.93;12.47;;;0.00;99.90;;;;;;5027107;28;20033;-80
2021/12/03 00:56:09;;;;;;;18.93;12.20;;;0.00;99.90;;;;;;5026996;28;20108;-80
2021/12/03 00:58:35;;;;;;;16.87;11.93;;;0.00;99.90;;;;;;5027033;28;20473;-80
2021/12/03 01:01:01;;;;;;;17.10;11.60;;;0.00;99.90;;;;;;5026824;28;20064;-80
2021/12/03 01:03:27;;;;;;;14.93;10.33;;;0.10;99.90;;;;;;5009182;28;20114;-80
2021/12/03 01:05:54;;;;;;;18.60;12.63;;;0.10;99.90;;;;;;5026759;28;20044;-80
2021/12/03 01:08:20;;;;;;;15.63;11.03;;;0.10;99.90;;;;;;5026507;28;20535;-80
2021/12/03 01:10:45;;;;;;;18.10;12.37;;;0.20;99.90;;;;;;5022442;28;20059;-80
2021/12/03 01:13:11;;;;;;;20.00;12.73;;;0.20;99.90;;;;;;5007035;28;20109;-80
2021/12/03 01:15:39;;;;;;;15.93;11.33;;;0.20;99.90;;;;;;5006836;28;20120;-80
2021/12/03 01:18:06;;;;;;;16.50;11.80;;;0.20;99.90;;;;;;5007101;28;20030;-80
2021/12/03 01:20:34;;;;;;;19.13;12.27;;;0.20;99.90;;;;;;5006928;28;20034;-80
2021/12/03 01:23:00;;;;;;;19.37;12.17;;;0.20;99.90;;;;;;5010370;28;20097;-79
2021/12/03 01:25:27;;;;;;;18.23;12.70;;;0.20;99.90;;;;;;4992773;28;20026;-79
2021/12/03 01:27:55;;;;;;;16.43;12.20;;;0.20;99.90;;;;;;5010603;28;20026;-79
2021/12/03 01:30:22;;;;;;;17.73;12.23;;;0.20;99.90;;;;;;5010114;28;20121;-79
2021/12/03 01:32:49;;;;;;;19.40;13.27;;;0.20;99.90;;;;;;5010400;28;20038;-79
2021/12/03 01:35:16;;;;;;;19.23;11.97;;;0.20;99.90;;;;;;5010116;28;20076;-79
2021/12/03 01:37:42;;;;;;;18.33;12.33;;;0.20;99.90;;;;;;5010207;28;20026;-79
2021/12/03 01:40:12;;;;;;;20.63;12.80;;;0.20;99.90;;;;;;5010159;28;20541;-79
2021/12/03 01:42:38;;;;;;;18.60;12.20;;;0.20;99.90;;;;;;5010336;28;20430;-79
2021/12/03 01:45:07;;;;;;;18.97;12.53;;;0.20;99.90;;;;;;5010134;28;20113;-79
2021/12/03 01:47:32;;;;;;;16.93;11.83;;;0.10;99.90;;;;;;5009989;28;20033;-79
2021/12/03 01:49:58;;;;;;;17.90;12.10;;;0.10;99.90;;;;;;5009813;28;20038;-79
2021/12/03 01:52:23;;;;;;;19.50;12.10;;;0.00;99.90;;;;;;5009964;28;20499;-79
2021/12/03 01:54:49;;;;;;;16.20;11.20;;;0.00;99.90;;;;;;4992225;28;20029;-79
2021/12/03 01:57:16;;;;;;;19.13;11.77;;;0.00;99.90;;;;;;5009877;28;20029;-79
2021/12/03 01:59:42;;;;;;;16.57;11.63;;;-0.10;99.90;;;;;;5009689;28;20026;-79
2021/12/03 02:02:08;;;;;;;18.50;12.57;;;-0.10;99.90;;;;;;4992315;28;20061;-79
2021/12/03 02:04:34;;;;;;;18.93;11.07;;;-0.10;99.90;;;;;;5009725;28;20113;-79
2021/12/03 02:07:00;;;;;;;19.70;12.03;;;-0.10;99.90;;;;;;5009892;28;20049;-79
2021/12/03 02:09:26;;;;;;;19.97;12.67;;;-0.20;99.90;;;;;;5009391;28;20081;-79
2021/12/03 02:11:52;;;;;;;18.43;11.77;;;-0.20;99.90;;;;;;5023035;28;20066;-79
2021/12/03 02:14:18;;;;;;;17.30;11.80;;;-0.20;99.90;;;;;;5029324;28;20036;-79
2021/12/03 02:16:45;;;;;;;18.27;11.73;;;-0.20;99.90;;;;;;5011550;28;20045;-79
2021/12/03 02:19:12;;;;;;;18.33;12.63;;;-0.20;99.90;;;;;;5029170;28;20113;-79
2021/12/03 02:21:37;;;;;;;17.87;12.07;;;-0.20;99.90;;;;;;5029468;28;20029;-79
2021/12/03 02:24:03;;;;;;;18.90;11.53;;;-0.20;99.90;;;;;;5029234;28;20033;-79
2021/12/03 02:26:29;;;;;;;17.37;12.10;;;-0.20;99.90;;;;;;5011473;28;20460;-79
2021/12/03 02:28:55;;;;;;;17.57;11.57;;;-0.20;99.90;;;;;;5011371;28;20121;-79
2021/12/03 02:31:24;;;;;;;17.87;12.27;;;-0.20;99.90;;;;;;5011539;28;20029;-79
2021/12/03 02:33:51;;;;;;;18.87;12.37;;;-0.20;99.90;;;;;;5028618;28;20025;-79
2021/12/03 02:36:17;;;;;;;17.93;11.93;;;-0.20;99.90;;;;;;5029110;28;20468;-79
2021/12/03 02:38:43;;;;;;;19.33;12.43;;;-0.20;99.90;;;;;;5029139;28;20037;-79
2021/12/03 02:41:09;;;;;;;18.73;12.20;;;-0.20;99.90;;;;;;5029131;28;20048;-79
2021/12/03 02:43:34;;;;;;;17.73;12.33;;;-0.20;99.90;;;;;;5028930;28;20038;-79
2021/12/03 02:46:00;;;;;;;21.30;13.43;;;-0.20;99.90;;;;;;5028792;28;20437;-79
2021/12/03 02:48:26;;;;;;;21.07;12.90;;;-0.10;99.90;;;;;;5028720;28;20041;-79
2021/12/03 02:50:53;;;;;;;19.70;12.40;;;-0.20;99.90;;;;;;5028811;28;20029;-79
2021/12/03 02:53:19;;;;;;;20.37;12.47;;;-0.10;99.90;;;;;;5011091;28;20470;-79
2021/12/03 02:55:45;;;;;;;19.17;12.87;;;-0.10;99.90;;;;;;5028603;28;20065;-79
2021/12/03 02:58:12;;;;;;;20.93;11.97;;;-0.10;99.90;;;;;;5010914;28;20205;-79
2021/12/03 03:00:40;;;;;;;22.13;13.47;;;-0.10;99.90;;;;;;5028706;28;20033;-79
2021/12/03 03:03:05;;;;;;;19.27;12.43;;;-0.10;99.90;;;;;;5028648;28;20057;-79
2021/12/03 03:05:32;;;;;;;17.90;11.70;;;-0.10;99.90;;;;;;5028424;28;20146;-79
2021/12/03 03:07:57;;;;;;;18.27;11.27;;;-0.10;99.90;;;;;;5028475;28;20026;-79
2021/12/03 03:10:28;;;;;;;19.90;12.13;;;-0.10;99.90;;;;;;5026733;28;20086;-79
2021/12/03 03:12:54;;;;;;;17.97;11.83;;;0.00;99.90;;;;;;5008642;28;20029;-79
2021/12/03 03:15:21;;;;;;;21.47;12.43;;;0.00;99.90;;;;;;5008790;28;20022;-79
2021/12/03 03:17:48;;;;;;;18.87;11.60;;;0.00;99.90;;;;;;5008752;28;20032;-79
2021/12/03 03:20:15;;;;;;;16.07;10.77;;;0.00;99.90;;;;;;5008637;28;20025;-79
2021/12/03 03:22:41;;;;;;;16.23;10.80;;;0.10;99.90;;;;;;4991148;28;20030;-79
2021/12/03 03:25:10;;;;;;;15.83;9.90;;;0.10;99.90;;;;;;5008635;28;20037;-79
2021/12/03 03:27:36;;;;;;;15.30;8.90;;;0.10;99.90;;;;;;4990924;28;20444;-79
2021/12/03 03:30:04;;;;;;;15.40;10.03;;;0.10;99.90;;;;;;5008283;28;20040;-79
2021/12/03 03:32:30;;;;;;;13.60;9.37;;;0.10;99.90;;;;;;5008304;28;20474;-79
2021/12/03 03:34:55;;;;;;;15.93;9.57;;;0.10;99.90;;;;;;5008228;28;20058;-79
2021/12/03 03:37:21;;;;;;;16.13;9.07;;;0.10;99.90;;;;;;5008349;28;20030;-79
2021/12/03 03:39:47;;;;;;;13.63;9.10;;;0.10;99.90;;;;;;5008258;28;20030;-79
2021/12/03 03:42:14;;;;;;;13.00;8.83;;;0.20;99.90;;;;;;5008320;28;20033;-79
2021/12/03 03:44:40;;;;;;;15.53;9.73;;;0.20;99.90;;;;;;5007382;28;20037;-79
2021/12/03 03:47:07;;;;;;;15.77;9.60;;;0.20;99.90;;;;;;5008239;28;20030;-79
2021/12/03 03:49:34;;;;;;;12.93;8.57;;;0.20;99.90;;;;;;5008073;28;20113;-79
2021/12/03 03:52:01;;;;;;;14.03;8.87;;;0.20;99.90;;;;;;5008051;28;20037;-79
2021/12/03 03:54:27;;;;;;;18.30;9.53;;;0.20;99.90;;;;;;5008018;28;20123;-79
2021/12/03 03:56:54;;;;;;;12.63;8.80;;;0.20;99.90;;;;;;4990327;28;20034;-79
2021/12/03 03:59:19;;;;;;;13.37;9.27;;;0.20;99.90;;;;;;4990500;28;20063;-79
2021/12/03 04:01:47;;;;;;;13.47;8.50;;;0.20;99.90;;;;;;5007940;28;20022;-79
2021/12/03 04:04:14;;;;;;;12.30;9.03;;;0.20;99.90;;;;;;4990036;28;20033;-79
2021/12/03 04:06:42;;;;;;;14.83;8.83;;;0.20;99.90;;;;;;5008043;28;20033;-79
2021/12/03 04:09:09;;;;;;;14.17;9.30;;;0.40;99.90;;;;;;5007685;28;20121;-79
2021/12/03 04:11:35;;;;;;;12.93;8.43;;;0.40;99.90;;;;;;5019022;28;20028;-79
2021/12/03 04:14:01;;;;;;;13.87;9.53;;;0.30;99.90;;;;;;5027476;28;20034;-79
2021/12/03 04:16:28;;;;;;;12.50;8.77;;;0.30;99.90;;;;;;5027444;28;20029;-79
2021/12/03 04:18:54;;;;;;;14.37;9.37;;;0.30;99.90;;;;;;5009578;28;20033;-79
2021/12/03 04:21:19;;;;;;;11.83;8.67;;;0.20;99.90;;;;;;5027396;28;20107;-79
2021/12/03 04:23:45;;;;;;;12.53;8.53;;;0.30;99.90;;;;;;5027151;28;20033;-79
2021/12/03 04:26:11;;;;;;;10.60;7.80;;;0.30;99.90;;;;;;5027376;28;20037;-79
2021/12/03 04:28:37;;;;;;;12.67;8.63;;;0.30;99.90;;;;;;5027520;28;20041;-79
2021/12/03 04:31:03;;;;;;;12.97;8.77;;;0.20;99.90;;;;;;5027421;28;20036;-79
2021/12/03 04:33:28;;;;;;;14.60;8.53;;;0.20;99.90;;;;;;5009493;28;20040;-79
2021/12/03 04:35:54;;;;;;;14.37;7.77;;;0.20;99.90;;;;;;5027535;28;20033;-79
2021/12/03 04:38:20;;;;;;;12.23;7.73;;;0.20;99.90;;;;;;5027053;28;20036;-79
2021/12/03 04:40:46;;;;;;;12.77;7.93;;;0.20;99.90;;;;;;5027100;28;20075;-79
2021/12/03 04:43:12;;;;;;;14.20;7.77;;;0.20;99.90;;;;;;5027043;28;20061;-79
2021/12/03 04:45:38;;;;;;;10.00;7.50;;;0.10;99.90;;;;;;5027176;28;20033;-79
2021/12/03 04:48:05;;;;;;;11.67;7.67;;;0.20;99.90;;;;;;5027028;28;20096;-79
2021/12/03 04:50:35;;;;;;;10.50;7.53;;;0.10;99.90;;;;;;5027128;28;20033;-79
2021/12/03 04:53:02;;;;;;;10.10;7.33;;;0.10;99.90;;;;;;5026983;28;20476;-79
2021/12/03 04:55:27;;;;;;;12.73;8.40;;;0.10;99.90;;;;;;5027010;28;20094;-79
2021/12/03 04:57:53;;;;;;;12.50;8.47;;;0.00;99.90;;;;;;5030074;28;20101;-79
2021/12/03 05:00:42;;;;;;;12.20;8.23;;;-0.10;99.90;;;;;;5030379;28;20034;-79
2021/12/03 05:03:08;;;;;;;13.43;8.73;;;-0.10;99.90;;;;;;5030542;28;20399;-79
2021/12/03 05:05:35;;;;;;;13.57;8.67;;;-0.10;99.90;;;;;;5012800;28;20030;-79
2021/12/03 05:08:07;;;;;;;12.67;8.73;;;-0.20;99.90;;;;;;5030531;28;20043;-79
2021/12/03 05:10:37;;;;;;;13.50;8.50;;;-0.20;99.90;;;;;;5030384;28;20100;-79
2021/12/03 05:13:06;;;;;;;12.80;8.70;;;-0.20;99.90;;;;;;5030798;28;20103;-79
2021/12/03 05:15:33;;;;;;;14.73;9.27;;;-0.20;99.90;;;;;;5030534;28;20101;-79
2021/12/03 05:17:59;;;;;;;14.53;8.97;;;-0.20;99.90;;;;;;5030825;28;20026;-79
2021/12/03 05:20:24;;;;;;;13.83;8.40;;;-0.20;99.90;;;;;;5013441;28;20117;-81
2021/12/03 05:22:52;;;;;;;11.53;7.93;;;-0.20;99.90;;;;;;5013433;28;20033;-80
2021/12/03 05:25:18;;;;;;;11.50;8.43;;;-0.20;99.90;;;;;;5013176;28;20634;-80
2021/12/03 05:27:43;;;;;;;15.20;9.07;;;-0.20;99.90;;;;;;5031139;28;20026;-81
2021/12/03 05:30:11;;;;;;;13.70;8.63;;;-0.20;99.90;;;;;;5030946;28;20492;-81
2021/12/03 05:32:37;;;;;;;12.17;8.47;;;-0.20;99.90;;;;;;5011134;28;20129;-78
2021/12/03 05:35:04;;;;;;;13.67;8.63;;;-0.10;99.90;;;;;;5013155;28;20054;-78
2021/12/03 05:37:29;;;;;;;12.40;8.60;;;-0.10;99.90;;;;;;5013416;28;20054;-78
2021/12/03 05:39:55;;;;;;;12.47;8.80;;;-0.10;99.90;;;;;;5013084;28;20053;-78
2021/12/03 05:42:20;;;;;;;15.87;9.70;;;-0.10;99.90;;;;;;5010563;28;20102;-80
2021/12/03 05:44:46;;;;;;;12.57;9.03;;;-0.10;99.90;;;;;;5005041;28;20441;-80
2021/12/03 05:47:11;;;;;;;13.07;8.70;;;0.00;99.90;;;;;;5009774;28;20124;-80
2021/12/03 05:49:37;;;;;;;14.13;8.80;;;0.00;99.90;;;;;;5021529;28;20033;-80
2021/12/03 05:52:03;;;;;;;12.50;8.90;;;0.00;99.90;;;;;;5017397;28;20105;-81
2021/12/03 05:54:29;;;;;;;13.57;8.87;;;0.00;99.90;;;;;;5002462;28;20105;-81
2021/12/03 05:56:55;;;;;;;13.60;9.20;;;0.00;99.90;;;;;;5008500;28;20022;-73
2021/12/03 05:59:21;;;;;;;14.53;9.03;;;0.00;99.90;;;;;;5007137;28;20045;-77
2021/12/03 06:01:46;;;;;;;12.43;8.80;;;0.00;99.90;;;;;;4993439;28;20034;-76
2021/12/03 06:04:12;;;;;;;13.70;9.20;;;0.00;99.90;;;;;;4993465;28;20438;-75
2021/12/03 06:06:37;;;;;;;14.87;8.90;;;0.00;99.90;;;;;;4992593;28;20034;-76
2021/12/03 06:09:04;;;;;;;14.47;9.77;;;0.00;99.90;;;;;;4992806;28;20429;-76
2021/12/03 06:11:32;;;;;;;12.27;9.27;;;0.00;99.90;;;;;;4993128;28;20049;-76
2021/12/03 06:13:57;;;;;;;15.17;9.70;;;0.10;99.90;;;;;;4993192;28;20101;-76
2021/12/03 06:16:23;;;;;;;13.73;9.30;;;0.00;99.90;;;;;;4994032;28;20081;-80
2021/12/03 06:18:49;;;;;;;14.30;9.57;;;0.00;99.90;;;;;;4990300;28;20046;-80
2021/12/03 06:21:15;;;;;;;14.70;9.27;;;0.00;99.90;;;;;;4990664;28;20385;-81
2021/12/03 06:23:41;;;;;;;15.93;10.07;;;0.00;99.90;;;;;;4990829;28;20037;-78
2021/12/03 06:26:09;;;;;;;15.43;10.90;;;0.00;99.90;;;;;;4994775;28;20477;-81
2021/12/03 06:28:37;;;;;;;12.77;9.23;;;0.00;99.90;;;;;;4975484;28;20553;-76
2021/12/03 06:31:02;;;;;;;14.40;9.53;;;-0.10;99.90;;;;;;4992659;28;20424;-76
2021/12/03 06:33:28;;;;;;;17.47;9.93;;;0.00;99.90;;;;;;4993181;28;20035;-77
2021/12/03 06:35:54;;;;;;;15.37;9.77;;;0.00;99.90;;;;;;4993329;28;20054;-77
2021/12/03 06:38:22;;;;;;;16.50;10.10;;;0.00;99.90;;;;;;4992608;28;20470;-77
2021/12/03 06:40:49;;;;;;;14.23;10.10;;;0.00;99.90;;;;;;4975352;28;20362;-77
2021/12/03 06:43:15;;;;;;;16.87;10.43;;;0.00;99.90;;;;;;4992814;28;20018;-77
2021/12/03 06:45:41;;;;;;;15.60;10.27;;;0.00;99.90;;;;;;4992574;28;20424;-77
2021/12/03 06:48:07;;;;;;;16.07;10.50;;;-0.10;99.90;;;;;;4992744;28;20037;-77
2021/12/03 06:50:33;;;;;;;14.43;10.60;;;-0.10;99.90;;;;;;4974990;28;20335;-77
2021/12/03 06:53:05;;;;;;;15.13;10.93;;;-0.10;99.90;;;;;;4992315;28;20031;-77
2021/12/03 06:55:44;;;;;;;16.00;9.80;;;-0.20;99.90;;;;;;4992439;28;20030;-77
2021/12/03 06:58:10;;;;;;;14.10;10.33;;;-0.20;99.90;;;;;;4992664;28;20703;-77
2021/12/03 07:00:36;;;;;;;14.43;9.83;;;-0.20;99.90;;;;;;4992487;28;20038;-76
2021/12/03 07:03:02;;;;;;;17.33;10.37;;;-0.20;99.90;;;;;;5008382;28;20034;-77
2021/12/03 07:05:27;;;;;;;16.20;10.10;;;-0.20;99.90;;;;;;5011974;28;20052;-77
2021/12/03 07:07:53;;;;;;;15.67;10.67;;;-0.20;99.90;;;;;;5011710;28;20478;-77
2021/12/03 07:10:19;;;;;;;13.77;9.67;;;-0.20;99.90;;;;;;5011657;28;20034;-77
2021/12/03 07:12:45;;;;;;;15.80;10.17;;;-0.20;99.90;;;;;;5011682;28;20090;-77
2021/12/03 07:15:11;;;;;;;15.27;9.87;;;-0.20;99.90;;;;;;5011849;28;20100;-77
2021/12/03 07:17:36;;;;;;;16.63;10.43;;;-0.20;99.90;;;;;;5011474;28;20399;-77
2021/12/03 07:20:06;;;;;;;15.17;9.83;;;-0.20;99.90;;;;;;5012693;28;20053;-82
2021/12/03 07:22:35;;;;;;;14.23;10.20;;;-0.20;99.90;;;;;;5049681;28;20029;-77
2021/12/03 07:25:01;;;;;;;12.87;9.33;;;-0.20;99.90;;;;;;5115003;28;20051;-77
2021/12/03 07:27:27;;;;;;;14.30;9.03;;;-0.20;99.90;;;;;;5114711;28;20028;-77
2021/12/03 07:29:52;;;;;;;17.13;9.77;;;-0.20;99.90;;;;;;5114794;28;20145;-77
2021/12/03 07:32:20;;;;;;;15.43;9.37;;;-0.20;99.90;;;;;;5114726;28;20015;-77
2021/12/03 07:34:46;;;;;;;13.20;9.80;;;-0.10;99.90;;;;;;5114355;28;20468;-77
2021/12/03 07:37:13;;;;;;;18.10;10.63;;;-0.10;99.90;;;;;;5114366;28;20027;-78
2021/12/03 07:39:44;;;;;;;16.33;9.77;;;-0.10;99.90;;;;;;5001414;28;20440;-78
2021/12/03 07:42:09;;;;;;;13.97;10.13;;;-0.10;99.90;;;;;;5022412;28;20470;-78
2021/12/03 07:44:35;;;;;;;12.47;9.53;;;0.00;99.90;;;;;;5013010;28;20030;-78
2021/12/03 07:47:01;;;;;;;14.63;9.37;;;-0.10;99.90;;;;;;5026699;28;20030;-81
2021/12/03 07:49:27;;;;;;;13.77;9.30;;;0.00;99.90;;;;;;5020404;28;20037;-82
2021/12/03 07:51:54;;;;;;;12.93;9.53;;;0.10;99.90;;;;;;5002710;28;20048;-80
2021/12/03 07:54:20;;;;;;;17.10;10.80;;;0.10;99.90;;;;;;5000578;28;20038;-78
2021/12/03 07:56:46;;;;;;;13.80;9.23;;;0.10;99.90;;;;;;5019423;28;20077;-81
2021/12/03 07:59:12;;;;;;;12.30;8.90;;;0.20;99.90;;;;;;5023743;28;20076;-81
2021/12/03 08:01:41;;;;;;;12.67;8.90;;;0.20;99.90;;;;;;5021567;28;20711;-81
2021/12/03 08:04:07;;;;;;;12.73;8.70;;;0.30;99.90;;;;;;5019614;28;20034;-80
2021/12/03 08:06:33;;;;;;;13.73;9.30;;;0.30;99.90;;;;;;5022630;28;20111;-81
2021/12/03 08:09:01;;;;;;;14.63;8.57;;;0.30;99.90;;;;;;5024133;28;20053;-80
2021/12/03 08:11:26;;;;;;;13.90;10.00;;;0.30;99.90;;;;;;5026038;28;20025;-80
2021/12/03 08:13:52;;;;;;;11.97;9.00;;;0.30;99.90;;;;;;5024818;28;20037;-81
2021/12/03 08:16:17;;;;;;;15.40;9.10;;;0.30;99.90;;;;;;5021931;28;20030;-81
2021/12/03 08:18:44;;;;;;;11.97;9.10;;;0.30;99.90;;;;;;5022249;28;20093;-80
2021/12/03 08:21:09;;;;;;;14.10;9.73;;;0.40;99.90;;;;;;5021766;28;20074;-81
2021/12/03 08:23:35;;;;;;;17.93;9.90;;;0.40;99.90;;;;;;4999302;28;20415;-80
2021/12/03 08:26:01;;;;;;;16.73;9.60;;;0.40;99.90;;;;;;5017349;28;20080;-80
2021/12/03 08:28:26;;;;;;;13.60;9.63;;;0.30;99.90;;;;;;5002032;28;20109;-80
2021/12/03 08:30:52;;;;;;;13.20;9.07;;;0.30;99.90;;;;;;5017287;28;20034;-80
2021/12/03 08:33:17;;;;;;;13.23;9.43;;;0.30;99.90;;;;;;5017870;28;20072;-80
2021/12/03 08:35:43;;;;;;;14.30;9.50;;;0.30;99.90;;;;;;5020502;28;20056;-80
2021/12/03 08:38:09;;;;;;;14.13;9.80;;;0.30;99.90;;;;;;5022966;28;20038;-81
2021/12/03 08:40:35;;;;;;;13.43;9.23;;;0.30;99.90;;;;;;5026488;28;20056;-81
2021/12/03 08:43:03;;;;;;;13.23;8.80;;;0.30;99.90;;;;;;5022685;28;20042;-80
2021/12/03 08:45:29;;;;;;;13.23;8.77;;;0.40;99.90;;;;;;5021205;28;20042;-81
2021/12/03 08:47:58;;;;;;;13.67;9.00;;;0.40;99.90;;;;;;5021500;28;20129;-81
2021/12/03 08:50:34;;;;;;;13.27;8.53;;;0.50;99.90;;;;;;5002779;28;20030;-81
2021/12/03 08:55:48;;;;;;;12.53;8.73;;;0.50;99.90;;;;;;5043543;28;20042;-81
2021/12/03 08:58:16;;;;;;;11.23;8.67;;;0.40;99.90;;;;;;5018357;28;20091;-81
2021/12/03 09:00:43;;;;;;;10.93;8.03;;;0.40;99.90;;;;;;5019732;28;20037;-81
2021/12/03 09:03:08;;;;;;;12.57;8.90;;;0.40;99.90;;;;;;5005641;28;20041;-81
2021/12/03 09:05:37;;;;;;;11.53;8.30;;;0.50;99.90;;;;;;5023658;28;20039;-81
2021/12/03 09:08:03;;;;;;;10.57;7.37;;;0.60;99.90;;;;;;5023777;28;20033;-81
2021/12/03 09:10:28;;;;;;;13.67;8.03;;;0.70;99.90;;;;;;5023395;28;20102;-81
2021/12/03 09:12:54;;;;;;;13.10;8.60;;;0.80;99.90;;;;;;5020987;28;20034;-81
2021/12/03 09:15:29;;;;;;;14.70;8.10;;;0.90;99.90;;;;;;5003607;28;20033;-81
2021/12/03 09:18:10;;;;;;;9.95;7.20;;;1.00;99.90;;;;;;5019530;28;20124;-81
2021/12/03 09:23:06;;;;;;;10.73;7.70;;;1.20;99.90;;;;;;5019934;28;20068;-82
2021/12/03 09:25:37;;;;;;;9.97;7.53;;;1.10;99.90;;;;;;5000009;28;20071;-77
2021/12/03 09:28:06;;;;;;;11.80;8.00;;;1.20;99.90;;;;;;5019227;28;20024;-77
2021/12/03 09:30:40;;;;;;;9.93;7.60;;;1.20;99.90;;;;;;5009907;28;20018;-77
2021/12/03 09:33:10;;;;;;;9.67;7.43;;;1.20;99.90;;;;;;5009882;28;20018;-77
2021/12/03 09:35:41;;;;;;;12.47;7.83;;;1.20;99.90;;;;;;5010218;28;20093;-77
2021/12/03 09:38:07;;;;;;;12.07;7.87;;;1.30;99.90;;;;;;5010165;28;20018;-77
2021/12/03 09:40:36;;;;;;;10.53;7.57;;;1.20;99.90;;;;;;5010015;28;20030;-77
2021/12/03 09:43:02;;;;;;;12.97;8.03;;;1.20;99.90;;;;;;5013998;28;20032;-77
2021/12/03 09:45:29;;;;;;;12.27;7.67;;;1.20;99.90;;;;;;5032802;28;20030;-77
2021/12/03 09:47:55;;;;;;;12.70;7.30;;;1.20;99.90;;;;;;5032811;28;20454;-77
2021/12/03 09:50:21;;;;;;;10.80;7.47;;;1.20;99.90;;;;;;5022792;28;20079;-77
2021/12/03 09:55:19;;;;;;;10.87;6.73;;;1.20;99.90;;;;;;5013384;28;20061;-77
2021/12/03 10:09:21;;;;;;;10.13;6.77;;;1.60;99.90;;;;;;5012804;28;20109;-77
2021/12/03 10:25:33;;;;;;;9.60;6.57;;;1.50;99.90;;;;;;5002172;28;20036;-73
2021/12/03 10:31:18;;;;;;;8.07;5.33;;;1.50;99.90;;;;;;5018913;28;20345;-77
2021/12/03 10:51:57;;;;;;;5.87;4.43;;;1.60;99.90;;;;;;5018080;28;19916;-77
2021/12/03 11:00:47;;;;;;;5.97;3.90;;;1.60;99.90;;;;;;5028083;28;20078;-82
2021/12/03 13:12:53;;;;;;;5.80;3.70;;;2.70;99.90;;;;;;5019204;28;20101;-80
2021/12/03 13:21:37;;;;;;;7.13;5.17;;;2.80;99.90;;;;;;5019437;28;20043;-81
2021/12/03 14:41:42;;;;;;;7.70;5.03;;;1.60;99.90;;;;;;5012230;28;20043;-80
2021/12/03 14:44:22;;;;;;;8.77;4.70;;;1.50;99.90;;;;;;5012071;28;20919;-81
2021/12/03 14:53:13;;;;;;;10.90;4.73;;;1.30;99.90;;;;;;5020657;28;20029;-75
2021/12/03 14:55:42;;;;;;;7.17;4.27;;;1.30;99.90;;;;;;5015679;28;20049;-80
2021/12/03 14:58:13;;;;;;;7.13;4.37;;;1.20;99.90;;;;;;5018070;28;20014;-79
2021/12/03 15:08:52;;;;;;;10.23;4.50;;;1.20;99.90;;;;;;5011846;28;20046;-77
2021/12/03 15:32:00;;;;;;;9.07;5.27;;;0.60;99.90;;;;;;5013730;28;20074;-81
2021/12/03 15:40:20;;;;;;;7.23;5.10;;;0.40;99.90;;;;;;5030140;28;20452;-77
2021/12/03 15:56:59;;;;;;;8.53;5.73;;;0.10;99.90;;;;;;5012004;28;20100;-78
2021/12/03 16:05:04;;;;;;;11.70;6.50;;;0.00;99.90;;;;;;5011604;28;20097;-78
2021/12/03 16:10:11;;;;;;;13.27;7.30;;;-0.10;99.90;;;;;;5015782;28;20049;-79
2021/12/03 16:43:35;;;;;;;14.13;6.77;;;-0.40;99.90;;;;;;5018870;28;20129;-74
2021/12/03 16:44:58;;;;;;;15.07;7.70;;;-0.50;99.90;;;;;;5015042;28;19917;-75
2021/12/03 16:52:38;;;;;;;11.37;7.73;;;-0.60;99.90;;;;;;5019983;28;20030;-75
2021/12/03 16:55:04;;;;;;;14.07;7.37;;;-0.60;99.90;;;;;;5019533;28;20484;-75
2021/12/03 16:57:35;;;;;;;15.63;7.57;;;-0.70;99.90;;;;;;5020636;28;20021;-75
2021/12/03 17:00:27;;;;;;;10.17;7.00;;;-0.70;99.90;;;;;;5019581;28;20442;-77
2021/12/03 17:13:57;;;;;;;10.07;7.30;;;-0.80;99.90;;;;;;5015609;28;20121;-74
2021/12/03 17:25:08;;;;;;;22.57;14.27;;;-1.00;99.90;;;;;;5033458;28;20124;-76
2021/12/03 17:48:56;;;;;;;14.57;8.40;;;-1.00;99.90;;;;;;5013290;28;20030;-79
2021/12/03 17:51:46;;;;;;;14.33;8.10;;;-0.90;99.90;;;;;;5013219;28;20025;-79
2021/12/03 17:54:31;;;;;;;11.93;7.03;;;-0.90;99.90;;;;;;5013441;28;20026;-79
2021/12/03 17:57:10;;;;;;;15.38;7.45;;;-0.90;99.90;;;;;;5081239;28;20030;-79
2021/12/03 17:59:47;;;;;;;13.67;7.87;;;-0.90;99.90;;;;;;5013263;28;20038;-79
2021/12/03 18:05:08;;;;;;;18.02;7.88;;;-0.90;99.90;;;;;;5011199;28;20037;-73
2021/12/03 18:07:44;;;;;;;13.83;7.80;;;-0.90;99.90;;;;;;5012916;28;20037;-75
2021/12/03 18:18:09;;;;;;;13.03;6.03;;;-0.90;99.90;;;;;;5012549;28;20102;-75
2021/12/03 18:51:30;;;;;;;13.60;6.90;;;-1.30;99.90;;;;;;5022952;28;20021;-75
2021/12/03 18:56:05;;;;;;;10.63;6.73;;;-1.40;99.90;;;;;;5021264;28;20401;-82
2021/12/03 18:58:31;;;;;;;11.30;7.13;;;-1.40;99.90;;;;;;5003304;28;20382;-74
2021/12/03 19:00:58;;;;;;;13.03;6.90;;;-1.40;99.90;;;;;;5022430;28;20382;-74
2021/12/03 19:03:39;;;;;;;10.20;7.23;;;-1.50;99.90;;;;;;5017416;28;20061;-74
2021/12/03 19:08:47;;;;;;;11.43;7.47;;;-1.50;99.90;;;;;;5012023;28;20489;-82
2021/12/03 19:11:34;;;;;;;12.33;7.57;;;-1.50;99.90;;;;;;5011360;28;20460;-82
2021/12/03 19:14:00;;;;;;;9.20;6.47;;;-1.50;99.90;;;;;;5012327;28;20022;-82
2021/12/03 19:16:26;;;;;;;9.93;6.77;;;-1.60;99.90;;;;;;5011654;28;20033;-82
2021/12/03 19:18:54;;;;;;;10.97;7.37;;;-1.60;99.90;;;;;;5014980;28;20541;-84
2021/12/03 19:21:26;;;;;;;13.83;8.10;;;-1.60;99.90;;;;;;5013355;28;20021;-83
2021/12/03 19:24:01;;;;;;;11.73;7.53;;;-1.60;99.90;;;;;;5013487;28;20178;-83
2021/12/03 19:26:29;;;;;;;13.57;7.35;;;-1.60;99.90;;;;;;5012486;28;20057;-83
2021/12/03 19:28:55;;;;;;;14.03;7.53;;;-1.60;99.90;;;;;;5012564;28;20132;-83
2021/12/03 19:31:23;;;;;;;13.57;8.10;;;-1.60;99.90;;;;;;5014533;28;20033;-83
2021/12/03 19:33:49;;;;;;;12.57;7.63;;;-1.60;99.90;;;;;;5013242;28;20021;-83
2021/12/03 19:36:25;;;;;;;15.50;7.73;;;-1.50;99.90;;;;;;5004888;28;20059;-76
2021/12/03 19:38:55;;;;;;;13.73;8.23;;;-1.50;99.90;;;;;;5021769;28;20083;-77
2021/12/03 19:41:47;;;;;;;13.27;7.80;;;-1.50;99.90;;;;;;5001333;28;20074;-77
2021/12/03 19:44:11;;;;;;;15.47;7.97;;;-1.40;99.90;;;;;;5029664;28;20147;-77
2021/12/03 19:46:42;;;;;;;12.07;7.73;;;-1.40;99.90;;;;;;5031036;28;20021;-77
2021/12/03 19:51:43;;;;;;;14.20;8.10;;;-1.40;99.90;;;;;;5030903;28;20132;-77
2021/12/03 19:54:09;;;;;;;11.27;7.23;;;-1.40;99.90;;;;;;5031158;28;20078;-77
2021/12/03 19:56:35;;;;;;;10.97;7.40;;;-1.30;99.90;;;;;;5030909;28;20109;-77
2021/12/03 19:59:02;;;;;;;11.37;6.83;;;-1.40;99.90;;;;;;5030901;28;20030;-77
2021/12/03 20:01:31;;;;;;;11.20;6.50;;;-1.40;99.90;;;;;;5031033;28;20080;-77
2021/12/03 20:03:57;;;;;;;11.83;6.40;;;-1.40;99.90;;;;;;5030969;28;20458;-77
2021/12/03 20:06:24;;;;;;;12.57;6.57;;;-1.40;99.90;;;;;;5031603;28;20105;-77
2021/12/03 20:08:56;;;;;;;10.17;6.27;;;-1.40;99.90;;;;;;5030387;28;20419;-77
2021/12/03 20:11:26;;;;;;;9.93;6.40;;;-1.40;99.90;;;;;;5030768;28;20082;-77
2021/12/03 20:13:57;;;;;;;9.03;6.33;;;-1.50;99.90;;;;;;5030877;28;20029;-77
2021/12/03 20:16:33;;;;;;;8.87;5.87;;;-1.50;99.90;;;;;;5030809;28;20082;-77
2021/12/03 20:21:41;;;;;;;10.77;5.70;;;-1.60;99.90;;;;;;5031108;28;20036;-77
2021/12/03 20:26:57;;;;;;;9.97;5.90;;;-1.60;99.90;;;;;;5030458;28;20037;-76
2021/12/03 20:35:26;;;;;;;14.03;7.13;;;-1.70;99.90;;;;;;5030803;28;20112;-76